Impacts TAF Board INFO
FOR SITUATIONAL AWARENESS. NOT TO BE USED FOR FLIGHT PLANNING PURPOSES.
IDs:

KPIT - Pittsburgh Intl, PA, US

Issued at 1458 UTC 18 Dec 2017
Updated at 1632 UTC 18 Dec 2017
Potential Impact None Slight Moderate High
Time1551Z 18/17Z 18/18Z 18/19Z 18/20Z 18/21Z 18/22Z 18/23Z 19/00Z 19/01Z 19/02Z 19/03Z 19/04Z 19/05Z>>
Type OBS PRVL PRVL PRVL PRVL PRVL PRVL PRVL PRVL PRVL PRVL PRVL PRVL PRVL
VIS 8 >6 >6 >6 >6 >6 >6 >6 >6 >6 >6 >6 >6 >6
CIG 9 8 8 8 8 8 8 8 10 10 10 10 10 10
Cover OVC OVC OVC OVC OVC OVC OVC OVC OVC OVC OVC OVC OVC OVC
FltCat IFR IFR IFR IFR IFR IFR IFR IFR MVFR MVFR MVFR MVFR MVFR MVFR
WX -- -DZ -DZ -DZ -DZ -DZ -DZ -DZ -- -- -- -- -- --
WDir 220 230 230 230 230 230 230 230 250 250 250 250 250 250
WSpd 7 8 8 8 8 8 8 8 8 8 8 8 8 8
WGst -- -- -- -- -- -- -- -- -- -- -- -- -- --

Raw TAF
KPIT 181458Z 1815/1918 22005KT P6SM OVC010
  FM181600 23008KT P6SM -DZ OVC008
  FM190000 25008KT P6SM OVC010
  FM191500 24010G18KT P6SM BKN015


Raw METAR
KPIT 181551Z 22007KT 200V260 8SM OVC009 06/03 A3003 RMK AO2 SLP185 T00560028
KPIT 181534Z 21009KT 10SM OVC009 05/03 A3004 RMK AO2 T00500028
KPIT 181451Z 22009KT 10SM BKN010 OVC045 05/02 A3005 RMK AO2 SLP190 T00500022 58003
KPIT 181413Z 22008KT 10SM BKN010 BKN030 OVC045 05/02 A3006 RMK AO2 T00500022
KPIT 181351Z 22007KT 10SM SCT030 OVC045 04/02 A3006 RMK AO2 SLP195 T00440022

METAR Board
Radar Display
Forecast Discussion

FOR SITUATIONAL AWARENESS. NOT TO BE USED FOR FLIGHT PLANNING PURPOSES.